Time;durP1;ratioP1;P1;durP2;ratioP2;P2;SDS_P1;SDS_P2;PMS_P1;PMS_P2;Temp;Humidity;BMP_temperature;BMP_pressure;BME280_temperature;BME280_humidity;BME280_pressure;Samples;Min_cycle;Max_cycle;Signal;HPM_P1;HPM_P2
2021/03/25 00:00:21;;;;;;;50.25;26.35;;;9.30;79.70;;;;;;5082088;28;20514;-68
2021/03/25 00:02:47;;;;;;;52.25;27.58;;;9.30;79.70;;;;;;5079409;28;20035;-69
2021/03/25 00:05:13;;;;;;;59.78;28.77;;;9.30;79.80;;;;;;5079600;28;20549;-68
2021/03/25 00:07:40;;;;;;;53.65;27.63;;;9.20;79.80;;;;;;5060062;28;20100;-68
2021/03/25 00:10:08;;;;;;;57.55;29.55;;;9.20;79.90;;;;;;5078975;28;20013;-68
2021/03/25 00:12:34;;;;;;;55.15;28.33;;;9.20;80.30;;;;;;5083383;28;20510;-68
2021/03/25 00:15:00;;;;;;;54.08;28.80;;;9.10;80.30;;;;;;5081476;28;20114;-68
2021/03/25 00:17:26;;;;;;;54.97;28.50;;;9.10;80.60;;;;;;5079108;28;20028;-68
2021/03/25 00:19:52;;;;;;;56.72;28.52;;;9.00;80.50;;;;;;5079693;28;20086;-68
2021/03/25 00:22:17;;;;;;;56.90;29.95;;;9.00;80.70;;;;;;5078754;28;20082;-67
2021/03/25 00:24:43;;;;;;;54.85;30.23;;;9.00;80.90;;;;;;5078543;28;20035;-68
2021/03/25 00:27:09;;;;;;;58.38;29.90;;;8.90;80.90;;;;;;5076986;28;20032;-68
2021/03/25 00:29:34;;;;;;;64.32;34.42;;;8.90;81.00;;;;;;5078571;28;20027;-67
2021/03/25 00:32:00;;;;;;;58.30;31.75;;;8.90;81.30;;;;;;5079530;28;20052;-68
2021/03/25 00:34:26;;;;;;;62.47;32.25;;;8.80;81.00;;;;;;5078852;28;20036;-68
2021/03/25 00:36:52;;;;;;;68.05;32.83;;;8.90;81.20;;;;;;5078509;28;20497;-67
2021/03/25 00:39:18;;;;;;;68.68;34.80;;;8.80;81.50;;;;;;5059529;28;20116;-68
2021/03/25 00:41:43;;;;;;;68.15;34.97;;;8.80;81.80;;;;;;5078446;28;20035;-68
2021/03/25 00:44:15;;;;;;;64.75;32.97;;;8.80;81.80;;;;;;5078902;28;20024;-68
2021/03/25 00:46:41;;;;;;;61.15;32.83;;;8.70;81.60;;;;;;5040921;28;20027;-67
2021/03/25 00:49:07;;;;;;;61.03;31.90;;;8.70;81.60;;;;;;5081463;28;20504;-68
2021/03/25 00:51:34;;;;;;;64.82;32.95;;;8.70;81.90;;;;;;5076564;28;20452;-68
2021/03/25 00:54:00;;;;;;;65.80;33.70;;;8.70;82.40;;;;;;5080156;28;20111;-68
2021/03/25 00:56:26;;;;;;;78.60;36.13;;;8.70;82.40;;;;;;5077252;28;20051;-66
2021/03/25 00:58:52;;;;;;;66.80;33.97;;;8.70;82.60;;;;;;5078179;28;20033;-68
2021/03/25 01:01:17;;;;;;;72.63;36.00;;;8.70;82.30;;;;;;5076534;28;20031;-67
2021/03/25 01:03:43;;;;;;;66.78;33.92;;;8.70;82.50;;;;;;5077615;28;20378;-68
2021/03/25 01:06:09;;;;;;;70.13;34.88;;;8.60;82.20;;;;;;5077906;28;20060;-67
2021/03/25 01:08:36;;;;;;;73.68;35.80;;;8.60;82.40;;;;;;5078049;28;20023;-67
2021/03/25 01:11:09;;;;;;;69.68;35.58;;;8.60;82.50;;;;;;5060984;28;20029;-68
2021/03/25 01:13:50;;;;;;;74.88;36.60;;;8.60;82.70;;;;;;5077779;28;20020;-68
2021/03/25 01:16:30;;;;;;;69.50;36.92;;;8.60;83.10;;;;;;5079925;28;20477;-67
2021/03/25 01:18:58;;;;;;;69.05;35.80;;;8.60;82.90;;;;;;5075579;28;20043;-68
2021/03/25 01:21:27;;;;;;;70.78;37.85;;;8.50;83.10;;;;;;5077786;28;20399;-68
2021/03/25 01:23:54;;;;;;;71.10;37.22;;;8.50;83.20;;;;;;5077592;28;20492;-67
2021/03/25 01:26:20;;;;;;;79.85;37.47;;;8.40;83.10;;;;;;5076777;28;20107;-68
2021/03/25 01:28:45;;;;;;;71.43;38.30;;;8.40;83.40;;;;;;5079281;28;20024;-68
2021/03/25 01:31:11;;;;;;;74.53;37.85;;;8.40;83.20;;;;;;5079161;28;20089;-68
2021/03/25 01:33:37;;;;;;;78.47;38.60;;;8.40;83.50;;;;;;5074220;28;20498;-68
2021/03/25 01:36:04;;;;;;;83.18;40.38;;;8.40;84.00;;;;;;5077677;28;20525;-68
2021/03/25 01:38:29;;;;;;;79.43;39.22;;;8.40;84.20;;;;;;5076399;28;20024;-69
2021/03/25 01:40:59;;;;;;;85.45;41.05;;;8.30;84.10;;;;;;5079239;28;20385;-68
2021/03/25 01:43:29;;;;;;;83.82;41.35;;;8.40;84.30;;;;;;5077747;28;20028;-68
2021/03/25 01:45:55;;;;;;;74.85;37.70;;;8.30;84.50;;;;;;5078475;28;20024;-68
2021/03/25 01:48:36;;;;;;;80.68;40.40;;;8.30;84.50;;;;;;5078601;28;20024;-68
2021/03/25 01:51:06;;;;;;;83.65;40.90;;;8.30;84.60;;;;;;5057259;28;20028;-68
2021/03/25 01:53:45;;;;;;;87.90;43.42;;;8.40;84.60;;;;;;5079111;28;20038;-68
2021/03/25 01:56:20;;;;;;;82.38;41.60;;;8.40;84.80;;;;;;5079901;28;20044;-67
2021/03/25 01:59:04;;;;;;;86.55;42.45;;;8.40;84.90;;;;;;5078317;28;20028;-68
2021/03/25 02:01:55;;;;;;;86.57;41.78;;;8.40;85.20;;;;;;5075770;28;20028;-68
2021/03/25 02:04:58;;;;;;;86.90;41.60;;;8.40;85.40;;;;;;5078035;28;20050;-68
2021/03/25 02:07:57;;;;;;;77.72;38.30;;;8.40;85.40;;;;;;5046788;28;20386;-68
2021/03/25 02:10:54;;;;;;;86.75;41.33;;;8.40;85.50;;;;;;5058002;28;20039;-68
2021/03/25 02:13:43;;;;;;;82.32;41.95;;;8.40;85.40;;;;;;5058627;28;20027;-68
2021/03/25 02:16:23;;;;;;;80.38;41.60;;;8.40;85.30;;;;;;5078809;28;20580;-68
2021/03/25 02:19:02;;;;;;;78.32;38.58;;;8.40;85.40;;;;;;5075111;28;20040;-67
2021/03/25 02:21:30;;;;;;;88.00;42.58;;;8.50;85.20;;;;;;5076278;28;20558;-68
2021/03/25 02:24:22;;;;;;;79.90;40.13;;;8.50;85.30;;;;;;5076621;28;20040;-67
2021/03/25 02:26:51;;;;;;;;;;;8.50;85.40;;;;;;5077257;28;20509;-68
2021/03/25 02:29:37;;;;;;;85.32;40.03;;;8.50;85.30;;;;;;5057158;28;20270;-68
2021/03/25 02:32:07;;;;;;;83.15;39.70;;;8.50;85.30;;;;;;5078101;28;20059;-68
2021/03/25 02:34:39;;;;;;;82.45;39.90;;;8.50;85.30;;;;;;5074501;28;20464;-68
2021/03/25 02:37:17;;;;;;;72.45;36.65;;;8.50;85.40;;;;;;5077558;28;20024;-68
2021/03/25 02:39:58;;;;;;;71.18;37.72;;;8.50;85.40;;;;;;5073430;28;20484;-68
2021/03/25 02:42:31;;;;;;;79.43;38.80;;;8.50;85.40;;;;;;5076903;28;20035;-68
2021/03/25 02:45:10;;;;;;;68.72;35.95;;;8.50;85.20;;;;;;5077089;28;20650;-68
2021/03/25 02:47:40;;;;;;;70.47;36.25;;;8.50;85.10;;;;;;5076585;28;20042;-68
2021/03/25 02:50:10;;;;;;;85.18;38.30;;;8.50;85.10;;;;;;5059756;28;20186;-68
2021/03/25 02:52:42;;;;;;;73.45;37.30;;;8.50;85.10;;;;;;5075323;28;20067;-68
2021/03/25 02:55:12;;;;;;;69.32;35.15;;;8.50;85.20;;;;;;5075688;28;20394;-68
2021/03/25 02:57:48;;;;;;;68.93;34.87;;;8.50;85.20;;;;;;5076945;28;20033;-68
2021/03/25 03:00:25;;;;;;;68.60;36.00;;;8.50;85.00;;;;;;5076910;28;20317;-68
2021/03/25 03:03:00;;;;;;;71.03;35.47;;;8.50;85.20;;;;;;5075312;28;20033;-68
2021/03/25 03:05:28;;;;;;;70.53;36.25;;;8.50;84.90;;;;;;5077407;28;20070;-68
2021/03/25 03:08:17;;;;;;;74.47;37.25;;;8.50;84.80;;;;;;5077412;28;20032;-68
2021/03/25 03:10:57;;;;;;;69.60;35.58;;;8.50;84.90;;;;;;5071659;28;20045;-68
2021/03/25 03:13:27;;;;;;;72.40;35.73;;;8.50;84.90;;;;;;5075451;28;20028;-68
2021/03/25 03:16:00;;;;;;;71.15;35.58;;;8.50;85.00;;;;;;5076439;28;20056;-68
2021/03/25 03:18:31;;;;;;;73.10;37.20;;;8.50;84.80;;;;;;5075731;28;20024;-68
2021/03/25 03:21:06;;;;;;;76.55;37.17;;;8.50;85.00;;;;;;5075540;28;20079;-68
2021/03/25 03:23:33;;;;;;;72.32;38.33;;;8.50;85.10;;;;;;5077507;28;20038;-69
2021/03/25 03:26:05;;;;;;;74.20;38.65;;;8.50;85.00;;;;;;5077489;28;20024;-68
2021/03/25 03:28:42;;;;;;;74.40;37.72;;;8.50;85.10;;;;;;5073128;28;20031;-68
2021/03/25 03:31:12;;;;;;;77.85;39.15;;;8.50;85.30;;;;;;5081706;28;20021;-68
2021/03/25 03:33:45;;;;;;;76.57;39.35;;;8.50;85.50;;;;;;5098482;22;20500;-73
2021/03/25 03:36:30;;;;;;;75.45;37.97;;;8.50;85.40;;;;;;5054714;28;20024;-73
2021/03/25 03:39:10;;;;;;;70.78;36.33;;;8.40;85.50;;;;;;5052937;28;20117;-73
2021/03/25 03:41:54;;;;;;;81.35;39.50;;;8.40;85.50;;;;;;5072419;28;20508;-73
2021/03/25 03:44:30;;;;;;;78.03;39.20;;;8.40;85.50;;;;;;5051782;28;20021;-73
2021/03/25 03:46:57;;;;;;;80.13;40.97;;;8.40;85.40;;;;;;5050006;28;20082;-74
2021/03/25 03:49:44;;;;;;;87.47;43.42;;;8.30;85.50;;;;;;5051058;28;20029;-73
2021/03/25 03:52:28;;;;;;;91.97;41.28;;;8.20;86.10;;;;;;5060634;28;20133;-73
2021/03/25 03:54:55;;;;;;;77.93;40.28;;;8.20;85.90;;;;;;5052955;28;20029;-73
2021/03/25 03:57:43;;;;;;;76.75;39.88;;;8.20;85.90;;;;;;5051713;28;20028;-73
2021/03/25 04:00:16;;;;;;;81.93;41.25;;;8.20;86.00;;;;;;5051840;28;20496;-73
2021/03/25 04:02:51;;;;;;;87.65;43.08;;;8.20;86.20;;;;;;5051592;28;20029;-74
2021/03/25 04:05:25;;;;;;;85.82;43.00;;;8.20;86.30;;;;;;5052555;28;20021;-72
2021/03/25 04:08:15;;;;;;;90.63;44.42;;;8.20;86.30;;;;;;5049147;28;20160;-73
2021/03/25 04:10:45;;;;;;;78.37;42.23;;;8.20;86.20;;;;;;5051884;28;20050;-73
2021/03/25 04:13:16;;;;;;;80.32;41.80;;;8.20;86.70;;;;;;5050160;28;20064;-73
2021/03/25 04:15:49;;;;;;;87.65;40.80;;;8.20;86.70;;;;;;5031880;28;20438;-73
2021/03/25 04:18:48;;;;;;;92.28;42.20;;;8.20;86.50;;;;;;5048221;28;20486;-74
2021/03/25 04:21:33;;;;;;;84.72;43.03;;;8.10;86.50;;;;;;5048750;28;20037;-73
2021/03/25 04:24:05;;;;;;;85.78;42.50;;;8.10;86.60;;;;;;5051469;28;20021;-73
2021/03/25 04:26:39;;;;;;;93.13;45.05;;;8.10;86.70;;;;;;5053986;28;20060;-74
2021/03/25 04:29:06;;;;;;;;;;;8.10;86.60;;;;;;5040684;28;20036;-73
2021/03/25 04:31:33;;;;;;;86.95;43.25;;;8.10;86.90;;;;;;5051347;28;19908;-73
2021/03/25 04:34:01;;;;;;;92.28;43.92;;;8.10;86.90;;;;;;5049027;28;20506;-74
2021/03/25 04:36:31;;;;;;;87.30;44.15;;;8.10;87.00;;;;;;5050513;28;20470;-73
2021/03/25 04:38:59;;;;;;;96.50;44.45;;;8.10;87.00;;;;;;5033424;28;20394;-73
2021/03/25 04:41:25;;;;;;;88.18;42.90;;;8.10;87.00;;;;;;5049630;28;20148;-73
2021/03/25 04:44:01;;;;;;;93.43;43.63;;;8.10;87.00;;;;;;5051954;28;20100;-72
2021/03/25 04:46:47;;;;;;;82.53;40.58;;;8.10;87.00;;;;;;5050639;28;20017;-73
2021/03/25 04:49:21;;;;;;;83.22;42.42;;;8.10;86.80;;;;;;5050813;28;20025;-73
2021/03/25 04:51:47;;;;;;;83.35;42.72;;;8.10;86.70;;;;;;5049281;28;20475;-73
2021/03/25 04:54:35;;;;;;;80.88;40.53;;;8.10;86.60;;;;;;5050230;28;20033;-74
2021/03/25 04:57:33;;;;;;;79.75;41.88;;;8.10;86.50;;;;;;5031898;28;20116;-74
2021/03/25 05:00:08;;;;;;;82.07;41.40;;;8.10;86.80;;;;;;5033391;28;20033;-74
2021/03/25 05:02:35;;;;;;;84.53;41.80;;;8.10;87.00;;;;;;5050107;28;20025;-73
2021/03/25 05:05:02;;;;;;;75.88;40.17;;;8.10;87.20;;;;;;5050186;28;20274;-74
2021/03/25 05:07:33;;;;;;;75.43;38.47;;;8.10;87.20;;;;;;5048035;28;20035;-73
2021/03/25 05:10:00;;;;;;;77.35;40.25;;;8.10;86.90;;;;;;5049590;28;20025;-73
2021/03/25 05:12:27;;;;;;;84.25;42.38;;;8.10;86.90;;;;;;5049292;28;20490;-73
2021/03/25 05:15:09;;;;;;;81.88;42.08;;;8.10;86.90;;;;;;5049933;28;20033;-73
2021/03/25 05:17:48;;;;;;;77.32;40.03;;;8.20;86.90;;;;;;5048809;28;20032;-74
2021/03/25 05:20:22;;;;;;;78.10;40.22;;;8.10;86.80;;;;;;5049362;28;20025;-73
2021/03/25 05:23:05;;;;;;;81.45;41.03;;;8.10;87.10;;;;;;5049626;28;20056;-73
2021/03/25 05:25:44;;;;;;;79.43;41.55;;;8.20;86.70;;;;;;5049873;28;20071;-74
2021/03/25 05:28:37;;;;;;;77.07;40.50;;;8.20;86.90;;;;;;5048901;28;20087;-73
2021/03/25 05:31:06;;;;;;;75.53;37.28;;;8.10;87.10;;;;;;5021733;28;20033;-74
2021/03/25 05:33:34;;;;;;;77.38;39.80;;;8.20;87.00;;;;;;5048135;28;20095;-74
2021/03/25 05:36:02;;;;;;;78.60;37.30;;;8.20;87.00;;;;;;5050998;28;20046;-73
2021/03/25 05:38:29;;;;;;;77.68;41.13;;;8.20;87.00;;;;;;5054326;28;20029;-75
2021/03/25 05:41:03;;;;;;;76.43;37.92;;;8.20;86.90;;;;;;5050519;28;20095;-73
2021/03/25 05:43:47;;;;;;;69.82;36.72;;;8.20;86.80;;;;;;5053838;28;20041;-73
2021/03/25 05:46:24;;;;;;;77.93;38.90;;;8.20;86.90;;;;;;5047179;28;20147;-73
2021/03/25 05:48:59;;;;;;;75.80;37.25;;;8.20;87.40;;;;;;5032227;28;20059;-75
2021/03/25 05:51:46;;;;;;;65.13;33.80;;;8.20;87.60;;;;;;5046624;28;20363;-74
2021/03/25 05:54:18;;;;;;;75.75;35.13;;;8.20;87.40;;;;;;5049261;28;20017;-74
2021/03/25 05:56:50;;;;;;;78.18;37.03;;;8.20;87.40;;;;;;5048912;28;20099;-74
2021/03/25 05:59:18;;;;;;;76.55;37.10;;;8.30;87.30;;;;;;5050173;28;20057;-73
2021/03/25 06:01:51;;;;;;;79.70;37.17;;;8.30;87.80;;;;;;5046362;28;20497;-74
2021/03/25 06:04:33;;;;;;;70.13;37.70;;;8.30;87.50;;;;;;5035268;28;20395;-74
2021/03/25 06:07:05;;;;;;;72.45;36.83;;;8.20;87.30;;;;;;5047680;28;20155;-72
2021/03/25 06:09:56;;;;;;;65.70;35.33;;;8.30;87.50;;;;;;5048386;28;20040;-73
2021/03/25 06:12:31;;;;;;;75.97;35.50;;;8.30;87.50;;;;;;5049302;28;20029;-74
2021/03/25 06:15:43;;;;;;;76.68;38.15;;;8.20;87.40;;;;;;5047617;28;20306;-72
2021/03/25 06:18:36;;;;;;;68.88;36.63;;;8.30;87.60;;;;;;5049936;28;20631;-74
2021/03/25 06:21:19;;;;;;;72.05;35.42;;;8.30;87.40;;;;;;5036507;28;20028;-75
2021/03/25 06:24:07;;;;;;;71.75;36.25;;;8.30;87.30;;;;;;5050598;28;20517;-74
2021/03/25 06:26:45;;;;;;;79.15;36.40;;;8.30;87.60;;;;;;5048304;28;20100;-76
2021/03/25 06:29:22;;;;;;;69.85;31.65;;;8.40;87.20;;;;;;5048742;28;20112;-73
2021/03/25 06:32:11;;;;;;;77.60;37.60;;;8.60;87.60;;;;;;5047690;28;20083;-76
2021/03/25 06:34:43;;;;;;;73.32;34.53;;;8.60;86.50;;;;;;5048836;28;20040;-74
2021/03/25 06:37:30;;;;;;;79.95;37.35;;;8.60;86.50;;;;;;5047112;28;20104;-76
2021/03/25 06:40:23;;;;;;;69.50;36.47;;;8.50;87.00;;;;;;5047738;28;20025;-74
2021/03/25 06:43:24;;;;;;;69.45;34.97;;;8.50;87.10;;;;;;5031328;28;20070;-76
2021/03/25 06:46:02;;;;;;;76.35;36.92;;;8.50;87.10;;;;;;5052136;28;20284;-74
2021/03/25 06:48:39;;;;;;;76.05;35.45;;;8.40;87.50;;;;;;5049692;28;20031;-75
2021/03/25 06:51:30;;;;;;;76.47;38.42;;;8.30;87.80;;;;;;5046550;28;20028;-75
2021/03/25 06:54:09;;;;;;;90.20;37.08;;;8.30;88.10;;;;;;5049211;28;20108;-75
2021/03/25 06:56:46;;;;;;;71.35;34.17;;;8.30;87.90;;;;;;5049067;28;20024;-74
2021/03/25 06:59:19;;;;;;;74.60;35.90;;;8.20;88.00;;;;;;5031910;28;20474;-75
2021/03/25 07:01:55;;;;;;;69.82;33.63;;;8.20;87.80;;;;;;5048888;28;20033;-74
2021/03/25 07:04:27;;;;;;;76.60;36.05;;;8.20;88.00;;;;;;5048862;28;20550;-75
2021/03/25 07:07:00;;;;;;;70.22;34.40;;;8.20;88.30;;;;;;5050797;28;20032;-74
2021/03/25 07:09:29;;;;;;;78.60;34.33;;;8.20;88.30;;;;;;5052568;28;20469;-75
2021/03/25 07:11:57;;;;;;;74.10;33.92;;;8.20;88.20;;;;;;5053796;28;20037;-71
2021/03/25 07:14:39;;;;;;;73.80;33.50;;;8.20;89.00;;;;;;5052512;28;20072;-71
2021/03/25 07:17:10;;;;;;;77.95;32.72;;;8.10;88.80;;;;;;5053160;28;20437;-72
2021/03/25 07:19:38;;;;;;;73.55;33.13;;;8.20;88.80;;;;;;5034053;28;20528;-76
2021/03/25 07:22:21;;;;;;;73.40;32.88;;;8.20;89.00;;;;;;5053013;28;20070;-75
2021/03/25 07:24:51;;;;;;;70.05;32.00;;;8.20;89.00;;;;;;5054368;28;20020;-73
2021/03/25 07:27:19;;;;;;;60.08;28.83;;;8.20;89.00;;;;;;5053207;28;20029;-72
2021/03/25 07:29:56;;;;;;;72.05;32.78;;;8.20;88.90;;;;;;5033302;28;20025;-74
2021/03/25 07:32:36;;;;;;;68.57;29.00;;;8.20;88.80;;;;;;5052022;28;20120;-74
2021/03/25 07:35:33;;;;;;;64.10;30.53;;;8.20;88.70;;;;;;5052892;28;20305;-74
2021/03/25 07:38:02;;;;;;;74.63;31.98;;;8.20;88.70;;;;;;5034250;28;20033;-76
2021/03/25 07:40:36;;;;;;;70.88;31.63;;;8.10;88.90;;;;;;5052555;28;20033;-74
2021/03/25 07:43:21;;;;;;;62.67;28.15;;;8.10;88.50;;;;;;5052533;28;20028;-74
2021/03/25 07:45:47;;;;;;;52.78;25.77;;;8.10;88.90;;;;;;5051011;28;20260;-74
2021/03/25 07:48:24;;;;;;;60.72;29.05;;;8.10;88.90;;;;;;5034488;28;20104;-76
2021/03/25 07:51:06;;;;;;;66.43;30.67;;;8.20;88.30;;;;;;5048554;28;20079;-73
2021/03/25 07:53:33;;;;;;;65.10;30.42;;;8.10;88.10;;;;;;5048104;28;20029;-73
2021/03/25 07:56:17;;;;;;;63.30;30.52;;;8.20;87.90;;;;;;5047798;28;20056;-74
2021/03/25 07:58:45;;;;;;;68.82;31.50;;;8.20;88.10;;;;;;5049231;28;20386;-75
2021/03/25 08:01:21;;;;;;;69.75;28.30;;;8.10;88.10;;;;;;5046706;28;20028;-74
2021/03/25 08:03:49;;;;;;;64.45;31.45;;;8.20;88.10;;;;;;5049531;28;20029;-74
2021/03/25 08:06:33;;;;;;;67.68;32.80;;;8.20;87.70;;;;;;5049850;28;20033;-74
2021/03/25 08:09:05;;;;;;;56.00;27.80;;;8.20;87.70;;;;;;5030471;28;20033;-74
2021/03/25 08:11:31;;;;;;;;;;;8.20;87.70;;;;;;5048645;28;20518;-75
2021/03/25 08:14:01;;;;;;;55.40;27.85;;;8.30;87.40;;;;;;5050931;28;19960;-74
2021/03/25 08:16:30;;;;;;;55.75;27.75;;;8.30;87.40;;;;;;5048142;28;20119;-74
2021/03/25 08:19:10;;;;;;;53.85;26.20;;;8.30;87.50;;;;;;5049176;28;20029;-74
2021/03/25 08:21:50;;;;;;;54.95;28.20;;;8.30;87.30;;;;;;5049553;28;20025;-74
2021/03/25 08:24:27;;;;;;;49.80;26.10;;;8.30;87.10;;;;;;5049704;28;20051;-73
2021/03/25 08:27:02;;;;;;;54.80;28.67;;;8.40;87.00;;;;;;5048071;28;20108;-74
2021/03/25 08:29:42;;;;;;;55.67;26.67;;;8.40;87.10;;;;;;5049863;28;20061;-74
2021/03/25 08:32:11;;;;;;;53.85;26.65;;;8.40;87.20;;;;;;5030111;28;576578;-73
2021/03/25 08:35:05;;;;;;;54.75;28.27;;;8.50;87.30;;;;;;5049909;28;20017;-75
2021/03/25 08:38:03;;;;;;;52.03;26.65;;;8.50;86.90;;;;;;5048431;28;20115;-74
2021/03/25 08:40:51;;;;;;;52.50;26.30;;;8.60;86.20;;;;;;5050293;28;20028;-73
2021/03/25 08:43:27;;;;;;;54.10;27.70;;;8.70;85.80;;;;;;5049008;28;20040;-74
2021/03/25 08:46:00;;;;;;;46.38;24.88;;;8.80;85.90;;;;;;5049218;28;20356;-73
2021/03/25 08:48:54;;;;;;;58.13;28.92;;;8.80;86.10;;;;;;5049162;28;20630;-73
2021/03/25 08:51:26;;;;;;;54.58;27.13;;;8.90;85.60;;;;;;5050893;28;20029;-73
2021/03/25 08:54:09;;;;;;;57.30;28.52;;;8.90;85.40;;;;;;5050267;28;20510;-73
2021/03/25 08:56:40;;;;;;;58.60;28.48;;;8.90;85.40;;;;;;5050474;28;20029;-73
2021/03/25 08:59:14;;;;;;;55.17;27.48;;;8.90;85.10;;;;;;5049535;28;20079;-75
2021/03/25 09:02:00;;;;;;;50.10;27.48;;;8.90;84.50;;;;;;5047170;28;20494;-73
2021/03/25 09:04:32;;;;;;;50.40;25.10;;;8.90;84.60;;;;;;5050343;28;20087;-73
2021/03/25 09:07:03;;;;;;;46.78;24.50;;;8.90;84.60;;;;;;5031327;28;20032;-74
2021/03/25 09:09:43;;;;;;;50.13;26.52;;;8.90;84.60;;;;;;5050087;28;20067;-74
2021/03/25 09:12:16;;;;;;;45.97;24.52;;;8.90;84.70;;;;;;5048481;28;20035;-73
2021/03/25 09:14:43;;;;;;;50.78;26.75;;;8.90;84.70;;;;;;5046395;28;20037;-74
2021/03/25 09:17:13;;;;;;;52.90;26.20;;;9.00;84.50;;;;;;5030207;28;20037;-73
2021/03/25 09:19:44;;;;;;;49.35;25.77;;;8.90;84.90;;;;;;5049111;28;20520;-74
2021/03/25 09:22:37;;;;;;;53.28;26.85;;;8.90;85.10;;;;;;5051648;28;20033;-74
2021/03/25 09:25:27;;;;;;;50.65;25.05;;;9.00;85.00;;;;;;5050041;28;20033;-73
2021/03/25 09:28:04;;;;;;;54.50;26.83;;;9.00;85.20;;;;;;5030481;28;20509;-74
2021/03/25 09:30:41;;;;;;;60.05;26.40;;;9.10;84.90;;;;;;5048441;28;20033;-73
2021/03/25 09:33:44;;;;;;;54.55;26.02;;;9.00;85.20;;;;;;5049347;28;20498;-73
2021/03/25 09:36:19;;;;;;;50.90;27.17;;;9.00;85.40;;;;;;5048793;28;20037;-74
2021/03/25 09:38:59;;;;;;;54.33;26.40;;;9.20;85.20;;;;;;5047857;28;20039;-77
2021/03/25 09:41:25;;;;;;;54.22;28.20;;;9.20;85.20;;;;;;5040222;28;20037;-73
2021/03/25 09:43:54;;;;;;;50.35;25.80;;;9.20;85.30;;;;;;5050207;28;20048;-74
2021/03/25 09:46:42;;;;;;;52.65;25.13;;;9.30;85.30;;;;;;5047503;28;20029;-75
2021/03/25 09:49:28;;;;;;;50.72;25.23;;;9.30;85.30;;;;;;5030274;28;20053;-74
2021/03/25 09:52:16;;;;;;;55.38;26.33;;;9.40;84.80;;;;;;5047390;28;20036;-76
2021/03/25 09:55:13;;;;;;;49.92;25.95;;;9.50;84.60;;;;;;5046016;28;20032;-79
2021/03/25 09:57:41;;;;;;;48.53;24.40;;;9.60;84.00;;;;;;5048896;28;20525;-75
2021/03/25 10:00:24;;;;;;;48.67;23.30;;;9.80;83.60;;;;;;5030340;28;20024;-74
2021/03/25 10:02:54;;;;;;;53.55;25.80;;;9.70;83.70;;;;;;5048849;28;20029;-73
2021/03/25 10:05:27;;;;;;;46.60;24.77;;;9.70;83.90;;;;;;5049459;28;20111;-75
2021/03/25 10:08:10;;;;;;;45.33;25.77;;;9.70;84.40;;;;;;5049623;28;20487;-74
2021/03/25 10:10:41;;;;;;;47.13;25.50;;;9.80;83.80;;;;;;5052026;28;20033;-74
2021/03/25 10:13:13;;;;;;;47.40;24.45;;;9.80;83.70;;;;;;5056693;28;20052;-73
2021/03/25 10:15:47;;;;;;;48.08;23.60;;;9.90;84.00;;;;;;5050791;28;20071;-74
2021/03/25 10:18:16;;;;;;;47.22;24.15;;;9.90;83.80;;;;;;5039697;28;20025;-75
2021/03/25 10:20:47;;;;;;;45.95;23.98;;;9.90;83.70;;;;;;5047578;28;20037;-74
2021/03/25 10:23:33;;;;;;;;;;;10.10;83.20;;;;;;5052545;28;20029;-74
2021/03/25 10:26:01;;;;;;;47.10;23.73;;;10.20;82.60;;;;;;5049268;28;20370;-75
2021/03/25 10:28:30;;;;;;;46.05;22.42;;;10.30;82.20;;;;;;5049821;28;20025;-72
2021/03/25 10:31:06;;;;;;;39.15;20.88;;;10.30;82.10;;;;;;5049954;28;20087;-76
2021/03/25 10:33:35;;;;;;;45.38;22.73;;;10.50;81.90;;;;;;5047896;28;20044;-75
2021/03/25 10:36:04;;;;;;;40.83;21.73;;;10.90;80.20;;;;;;5049712;28;20556;-73
2021/03/25 10:38:43;;;;;;;39.50;20.67;;;11.00;79.50;;;;;;5043645;28;20033;-73
2021/03/25 10:41:20;;;;;;;38.00;20.70;;;10.90;80.00;;;;;;5047352;28;20028;-74
2021/03/25 10:43:49;;;;;;;37.47;19.88;;;10.90;80.40;;;;;;5045776;28;20524;-73
2021/03/25 10:46:33;;;;;;;35.08;19.27;;;11.00;79.70;;;;;;5048139;28;20044;-77
2021/03/25 10:49:04;;;;;;;37.88;20.55;;;11.10;78.30;;;;;;5047533;28;20025;-73
2021/03/25 10:51:40;;;;;;;34.88;19.58;;;11.10;78.20;;;;;;5048688;28;20425;-73
2021/03/25 10:54:25;;;;;;;30.52;17.40;;;11.10;78.10;;;;;;5046126;28;20028;-74
2021/03/25 10:57:24;;;;;;;34.85;18.48;;;11.10;78.60;;;;;;5029687;28;20028;-76
2021/03/25 11:00:00;;;;;;;35.42;19.75;;;11.10;77.80;;;;;;5048688;28;20076;-74
2021/03/25 11:02:38;;;;;;;30.23;17.20;;;11.20;75.90;;;;;;5048196;28;20033;-74
2021/03/25 11:05:20;;;;;;;28.60;16.58;;;11.20;76.70;;;;;;5047662;28;20033;-74
2021/03/25 11:07:50;;;;;;;29.52;16.30;;;11.50;77.00;;;;;;5046164;28;20475;-74
2021/03/25 11:10:21;;;;;;;27.67;14.80;;;11.60;77.30;;;;;;5045773;28;20490;-74
2021/03/25 11:12:55;;;;;;;26.35;14.85;;;12.00;77.60;;;;;;5046858;28;20060;-74
2021/03/25 11:15:28;;;;;;;22.15;12.40;;;12.60;75.10;;;;;;5048193;28;20402;-74
2021/03/25 11:17:55;;;;;;;24.35;13.38;;;13.90;67.50;;;;;;5046283;28;20044;-73
2021/03/25 11:20:24;;;;;;;20.85;12.43;;;15.30;64.50;;;;;;5046828;28;20024;-72
2021/03/25 11:22:51;;;;;;;19.48;11.93;;;16.40;64.50;;;;;;5043294;28;20033;-75
2021/03/25 11:25:30;;;;;;;21.45;12.85;;;17.70;55.90;;;;;;5045053;28;20468;-78
2021/03/25 11:28:11;;;;;;;18.42;12.88;;;18.60;51.90;;;;;;5028044;28;20037;-76
2021/03/25 11:30:53;;;;;;;16.55;11.00;;;18.90;48.20;;;;;;5046016;28;20037;-76
2021/03/25 11:33:21;;;;;;;20.40;14.63;;;18.70;49.80;;;;;;5047633;28;20036;-75
2021/03/25 11:35:48;;;;;;;18.75;12.98;;;17.60;50.10;;;;;;5048106;28;20024;-75
2021/03/25 11:38:25;;;;;;;23.27;12.98;;;16.60;53.80;;;;;;5048764;28;20021;-72
2021/03/25 11:41:01;;;;;;;25.20;14.00;;;16.00;55.70;;;;;;5047728;28;20448;-72
2021/03/25 11:43:44;;;;;;;23.75;15.02;;;15.40;56.70;;;;;;5047042;28;20034;-73
2021/03/25 11:46:10;;;;;;;20.90;13.75;;;15.00;57.60;;;;;;5047248;28;20055;-73
2021/03/25 11:48:41;;;;;;;21.05;10.98;;;14.70;59.90;;;;;;5047293;28;20033;-72
2021/03/25 11:51:20;;;;;;;23.97;14.33;;;14.70;61.60;;;;;;5050433;28;20033;-73
2021/03/25 11:53:52;;;;;;;25.20;14.60;;;14.70;61.80;;;;;;5051822;28;20780;-73
2021/03/25 11:56:23;;;;;;;23.90;15.88;;;14.40;62.20;;;;;;5051441;28;20041;-72
2021/03/25 11:59:18;;;;;;;29.55;13.95;;;14.50;60.60;;;;;;5048873;28;20289;-72
2021/03/25 12:01:45;;;;;;;24.35;14.48;;;14.60;60.40;;;;;;5034452;28;20044;-72
2021/03/25 12:04:29;;;;;;;26.95;14.10;;;14.30;62.90;;;;;;5051526;28;20478;-71
2021/03/25 12:07:12;;;;;;;25.90;13.52;;;14.40;60.80;;;;;;5050892;28;20561;-71
2021/03/25 12:10:15;;;;;;;21.60;12.90;;;14.30;61.80;;;;;;5050080;28;20021;-72
2021/03/25 12:12:45;;;;;;;22.27;14.27;;;14.40;61.10;;;;;;5047066;28;20036;-72
2021/03/25 12:15:12;;;;;;;21.48;13.25;;;14.40;61.70;;;;;;5050771;28;20041;-72
2021/03/25 12:17:42;;;;;;;19.25;12.43;;;14.40;62.00;;;;;;5050951;28;20550;-71
2021/03/25 12:20:09;;;;;;;18.45;12.05;;;14.50;60.80;;;;;;5049926;28;20561;-73
2021/03/25 12:22:40;;;;;;;18.10;11.88;;;14.40;61.30;;;;;;5032457;28;20402;-73
2021/03/25 12:25:06;;;;;;;18.30;11.27;;;14.30;59.80;;;;;;5051175;28;20035;-73
2021/03/25 12:27:32;;;;;;;19.80;12.60;;;14.30;59.10;;;;;;5048849;28;20048;-70
2021/03/25 12:29:58;;;;;;;20.33;12.77;;;14.00;61.10;;;;;;5047713;28;20025;-70
2021/03/25 12:32:27;;;;;;;24.95;14.65;;;14.30;59.60;;;;;;5048450;28;20029;-72
2021/03/25 12:34:53;;;;;;;18.80;11.85;;;14.50;60.30;;;;;;5048316;28;20083;-72
2021/03/25 12:37:24;;;;;;;22.45;11.93;;;14.70;58.80;;;;;;5051289;28;20028;-72
2021/03/25 12:39:53;;;;;;;;;;;14.70;59.00;;;;;;5047700;28;20532;-72
2021/03/25 12:42:19;;;;;;;18.63;11.98;;;14.80;57.50;;;;;;5049679;28;19919;-72
2021/03/25 12:44:45;;;;;;;17.17;11.57;;;14.50;58.20;;;;;;5049885;28;20418;-71
2021/03/25 12:47:12;;;;;;;18.02;11.45;;;14.30;59.60;;;;;;5050774;28;20053;-73
2021/03/25 12:49:38;;;;;;;14.90;9.30;;;14.30;59.80;;;;;;5047920;28;20477;-72
2021/03/25 12:52:06;;;;;;;18.42;11.35;;;14.20;60.60;;;;;;5050405;28;20036;-72
2021/03/25 12:54:32;;;;;;;15.35;9.40;;;14.10;60.40;;;;;;5051096;28;20663;-72
2021/03/25 12:57:00;;;;;;;17.17;10.15;;;13.90;60.00;;;;;;5049205;28;20116;-72
2021/03/25 12:59:26;;;;;;;15.25;9.55;;;13.90;60.10;;;;;;5050530;28;20525;-72
2021/03/25 13:01:53;;;;;;;15.55;9.82;;;13.90;59.10;;;;;;5047629;28;20029;-72
2021/03/25 13:04:20;;;;;;;15.60;10.32;;;13.80;58.80;;;;;;5050630;28;20046;-72
2021/03/25 13:06:46;;;;;;;17.27;9.93;;;13.80;58.40;;;;;;5048226;28;20418;-72
2021/03/25 13:09:12;;;;;;;17.40;10.15;;;13.70;58.80;;;;;;5051051;28;20021;-72
2021/03/25 13:11:37;;;;;;;19.48;9.68;;;13.50;60.10;;;;;;5050414;28;20426;-72
2021/03/25 13:14:03;;;;;;;17.83;12.02;;;13.50;58.80;;;;;;5051568;28;20021;-73